createdAt,value
2017-01-05T00:00:37.652Z,15.76
2017-01-05T00:01:46.627Z,15.79
2017-01-05T00:02:55.610Z,15.7
2017-01-05T00:04:04.590Z,15.67
2017-01-05T00:05:13.560Z,15.69
2017-01-05T00:06:22.541Z,15.67
2017-01-05T00:07:31.522Z,15.64
2017-01-05T00:08:40.497Z,15.41
2017-01-05T00:09:49.481Z,15.44
2017-01-05T00:10:58.451Z,15.53
2017-01-05T00:12:07.471Z,15.59
2017-01-05T00:13:16.436Z,15.46
2017-01-05T00:14:25.444Z,15.38
2017-01-05T00:15:34.425Z,15.38
2017-01-05T00:16:43.402Z,15.42
2017-01-05T00:17:52.381Z,15.34
2017-01-05T00:19:01.368Z,15.36
2017-01-05T00:20:10.332Z,15.41
2017-01-05T00:21:19.311Z,15.41
2017-01-05T00:22:28.295Z,15.23
2017-01-05T00:23:37.274Z,15.12
2017-01-05T00:24:46.250Z,15.27
2017-01-05T00:25:55.271Z,15.24
2017-01-05T00:27:04.239Z,15.21
2017-01-05T00:28:13.219Z,15.11
2017-01-05T00:29:22.194Z,15.12
2017-01-05T00:30:31.186Z,15.13
2017-01-05T00:31:40.157Z,15.16
2017-01-05T00:32:49.126Z,15.13
2017-01-05T00:33:58.146Z,15.13
2017-01-05T00:35:07.122Z,15.12
2017-01-05T00:36:16.099Z,15.06
2017-01-05T00:37:25.108Z,15.11
2017-01-05T00:38:34.079Z,15.05
2017-01-05T00:39:43.078Z,15
2017-01-05T00:40:52.091Z,15.04
2017-01-05T00:42:01.059Z,14.88
2017-01-05T00:43:10.047Z,14.9
2017-01-05T00:44:19.405Z,14.98
2017-01-05T00:45:28.437Z,14.97
2017-01-05T00:46:37.407Z,14.9
2017-01-05T00:47:46.386Z,14.88
2017-01-05T00:48:55.365Z,14.82
2017-01-05T00:50:04.340Z,14.82
2017-01-05T00:51:13.322Z,14.82
2017-01-05T00:52:22.292Z,14.84
2017-01-05T00:53:31.266Z,14.91
2017-01-05T00:54:40.253Z,14.87
2017-01-05T00:55:49.222Z,14.9
2017-01-05T00:56:58.206Z,14.87
2017-01-05T00:58:07.171Z,14.9
2017-01-05T00:59:16.151Z,14.87
2017-01-05T01:00:25.116Z,14.88
2017-01-05T01:01:34.160Z,14.68
2017-01-05T01:02:43.157Z,14.7
2017-01-05T01:03:52.144Z,14.59
2017-01-05T01:05:01.121Z,14.67
2017-01-05T01:06:10.094Z,14.68
2017-01-05T01:07:19.069Z,14.68
2017-01-05T01:08:28.039Z,14.59
2017-01-05T01:09:37.024Z,14.54
2017-01-05T01:10:45.991Z,14.53
2017-01-05T01:11:54.981Z,14.47
2017-01-05T01:13:03.956Z,14.5
2017-01-05T01:14:12.945Z,14.53
2017-01-05T01:15:22.062Z,14.49
2017-01-05T01:16:31.034Z,14.6
2017-01-05T01:17:40.043Z,14.68
2017-01-05T01:18:49.033Z,14.57
2017-01-05T01:19:57.995Z,14.6
2017-01-05T01:21:06.960Z,14.59
2017-01-05T01:22:15.943Z,14.5
2017-01-05T01:23:24.925Z,14.62
2017-01-05T01:24:33.898Z,14.32
2017-01-05T01:25:42.879Z,14.32
2017-01-05T01:26:51.845Z,14.28
2017-01-05T01:28:00.823Z,14.37
2017-01-05T01:29:09.802Z,14.19
2017-01-05T01:30:18.783Z,14.19
2017-01-05T01:31:27.755Z,14.09
2017-01-05T01:32:36.732Z,14.2
2017-01-05T01:33:45.714Z,14.31
2017-01-05T01:34:54.681Z,14.3
2017-01-05T01:36:03.662Z,14.22
2017-01-05T01:37:12.634Z,14.31
2017-01-05T01:38:21.598Z,14.35
2017-01-05T01:39:30.573Z,14.32
2017-01-05T01:40:39.555Z,14.31
2017-01-05T01:41:48.522Z,14.19
2017-01-05T01:42:57.480Z,14.05
2017-01-05T01:44:06.458Z,14.13
2017-01-05T01:45:15.427Z,14.09
2017-01-05T01:46:24.399Z,14.06
2017-01-05T01:47:33.370Z,14.1
2017-01-05T01:48:42.352Z,13.99
2017-01-05T01:49:51.331Z,14.1
2017-01-05T01:51:00.289Z,14.02
2017-01-05T01:52:09.264Z,14.06
2017-01-05T01:53:18.257Z,14.06
2017-01-05T01:54:27.228Z,14.05
2017-01-05T01:55:36.210Z,14.02
2017-01-05T01:56:45.180Z,13.99
2017-01-05T01:57:54.153Z,14.09
2017-01-05T01:59:03.133Z,14.05
2017-01-05T02:00:12.118Z,14.01
2017-01-05T02:01:21.090Z,13.92
2017-01-05T02:02:30.070Z,13.98
2017-01-05T02:03:39.032Z,14.04
2017-01-05T02:04:48.001Z,14.01
2017-01-05T02:05:56.980Z,14.01
2017-01-05T02:07:05.951Z,14.02
2017-01-05T02:08:14.926Z,13.95
2017-01-05T02:09:23.911Z,13.89
2017-01-05T02:10:32.873Z,14.02
2017-01-05T02:11:41.851Z,13.95
2017-01-05T02:12:50.830Z,13.97
2017-01-05T02:13:59.805Z,14.01
2017-01-05T02:15:08.769Z,13.86
2017-01-05T02:16:17.748Z,13.72
2017-01-05T02:17:26.713Z,13.8
2017-01-05T02:18:35.690Z,13.74
2017-01-05T02:19:44.669Z,13.74
2017-01-05T02:20:53.658Z,13.66
2017-01-05T02:22:02.627Z,13.66
2017-01-05T02:23:11.592Z,13.62
2017-01-05T02:24:20.578Z,13.5
2017-01-05T02:25:29.553Z,13.43
2017-01-05T02:26:38.536Z,13.65
2017-01-05T02:27:47.514Z,13.65
2017-01-05T02:28:56.496Z,13.66
2017-01-05T02:30:05.472Z,13.54
2017-01-05T02:31:14.454Z,13.62
2017-01-05T02:32:23.415Z,13.68
2017-01-05T02:33:32.438Z,13.62
2017-01-05T02:34:41.433Z,13.54
2017-01-05T02:35:50.397Z,13.54
2017-01-05T02:36:59.363Z,13.64
2017-01-05T02:38:08.363Z,13.61
2017-01-05T02:39:17.343Z,13.56
2017-01-05T02:40:26.343Z,13.49
2017-01-05T02:41:35.318Z,13.47
2017-01-05T02:42:44.295Z,13.49
2017-01-05T02:43:53.287Z,13.39
2017-01-05T02:45:02.272Z,13.39
2017-01-05T02:46:11.244Z,13.39
2017-01-05T02:47:20.223Z,13.43
2017-01-05T02:48:29.189Z,13.51
2017-01-05T02:49:38.179Z,13.32
2017-01-05T02:50:47.156Z,13.41
2017-01-05T02:51:56.141Z,13.4
2017-01-05T02:53:05.101Z,13.39
2017-01-05T02:54:14.074Z,13.41
2017-01-05T02:55:23.046Z,13.43
2017-01-05T02:56:32.024Z,13.32
2017-01-05T02:57:41.000Z,13.28
2017-01-05T02:58:49.974Z,13.31
2017-01-05T02:59:58.946Z,13.32
2017-01-05T03:01:07.920Z,13.28
2017-01-05T03:02:16.897Z,13.3
2017-01-05T03:03:25.870Z,13.41
2017-01-05T03:04:34.842Z,13.27
2017-01-05T03:05:43.828Z,13.28
2017-01-05T03:06:52.811Z,13.05
2017-01-05T03:08:01.788Z,13.09
2017-01-05T03:09:10.767Z,13.12
2017-01-05T03:10:19.745Z,13
2017-01-05T03:11:28.717Z,13.15
2017-01-05T03:12:37.693Z,13.05
2017-01-05T03:13:46.708Z,12.99
2017-01-05T03:14:55.680Z,13.03
2017-01-05T03:16:04.657Z,13.03
2017-01-05T03:17:13.625Z,13.02
2017-01-05T03:18:22.596Z,13.1
2017-01-05T03:19:31.583Z,13.1
2017-01-05T03:20:40.571Z,13.09
2017-01-05T03:21:49.531Z,13.1
2017-01-05T03:22:58.491Z,13.1
2017-01-05T03:24:07.464Z,12.91
2017-01-05T03:25:16.435Z,12.99
2017-01-05T03:26:25.422Z,13.05
2017-01-05T03:27:34.416Z,13.03
2017-01-05T03:28:43.379Z,13
2017-01-05T03:29:52.364Z,12.98
2017-01-05T03:31:01.340Z,12.95
2017-01-05T03:32:10.320Z,13.02
2017-01-05T03:33:19.292Z,12.9
2017-01-05T03:34:28.270Z,12.98
2017-01-05T03:35:37.269Z,12.94
2017-01-05T03:36:46.235Z,12.94
2017-01-05T03:37:55.203Z,12.91
2017-01-05T03:39:04.182Z,12.92
2017-01-05T03:40:13.163Z,12.88
2017-01-05T03:41:22.124Z,12.91
2017-01-05T03:42:31.090Z,12.84
2017-01-05T03:43:40.066Z,12.87
2017-01-05T03:44:49.039Z,12.87
2017-01-05T03:45:58.014Z,12.88
2017-01-05T03:47:06.983Z,12.8
2017-01-05T03:48:15.956Z,12.81
2017-01-05T03:49:24.930Z,12.82
2017-01-05T03:50:33.917Z,12.72
2017-01-05T03:51:42.885Z,12.69
2017-01-05T03:52:51.863Z,12.67
2017-01-05T03:54:00.824Z,12.81
2017-01-05T03:55:09.796Z,12.82
2017-01-05T03:56:18.784Z,12.8
2017-01-05T03:57:27.766Z,12.7
2017-01-05T03:58:36.744Z,12.7
2017-01-05T03:59:45.727Z,12.65
2017-01-05T04:00:54.695Z,12.62
2017-01-05T04:02:03.660Z,12.55
2017-01-05T04:03:12.642Z,12.7
2017-01-05T04:04:21.617Z,12.54
2017-01-05T04:05:30.613Z,12.58
2017-01-05T04:06:39.597Z,12.6
2017-01-05T04:07:48.563Z,12.52
2017-01-05T04:08:57.544Z,12.54
2017-01-05T04:10:06.540Z,12.54
2017-01-05T04:11:15.519Z,12.49
2017-01-05T04:12:24.504Z,12.42
2017-01-05T04:13:33.483Z,12.32
2017-01-05T04:14:42.478Z,12.36
2017-01-05T04:15:51.441Z,12.44
2017-01-05T04:17:00.420Z,12.37
2017-01-05T04:18:09.391Z,12.33
2017-01-05T04:19:18.400Z,12.3
2017-01-05T04:20:27.375Z,12.33
2017-01-05T04:21:36.353Z,12.37
2017-01-05T04:22:45.316Z,12.36
2017-01-05T04:23:54.284Z,12.29
2017-01-05T04:25:03.270Z,12.32
2017-01-05T04:26:12.243Z,12.37
2017-01-05T04:27:21.226Z,12.41
2017-01-05T04:28:30.199Z,12.32
2017-01-05T04:29:39.175Z,12.33
2017-01-05T04:30:48.153Z,12.27
2017-01-05T04:31:57.128Z,12.34
2017-01-05T04:33:06.097Z,12.33
2017-01-05T04:34:15.071Z,12.27
2017-01-05T04:35:24.051Z,12.33
2017-01-05T04:36:33.019Z,12.29
2017-01-05T04:37:41.997Z,12.29
2017-01-05T04:38:50.960Z,12.42
2017-01-05T04:39:59.939Z,12.3
2017-01-05T04:41:08.905Z,12.34
2017-01-05T04:42:17.869Z,12.3
2017-01-05T04:43:26.842Z,12.27
2017-01-05T04:44:35.825Z,12.24
2017-01-05T04:45:44.796Z,12.29
2017-01-05T04:46:53.771Z,12.18
2017-01-05T04:48:02.744Z,12.14
2017-01-05T04:49:11.719Z,12.14
2017-01-05T04:50:20.690Z,12.12
2017-01-05T04:51:29.657Z,12.15
2017-01-05T04:52:38.639Z,12.16
2017-01-05T04:53:47.617Z,12.19
2017-01-05T04:54:56.612Z,12.24
2017-01-05T04:56:05.582Z,12.24
2017-01-05T04:57:14.568Z,12.34
2017-01-05T04:58:23.539Z,12.27
2017-01-05T04:59:32.515Z,12.21
2017-01-05T05:00:41.489Z,12.15
2017-01-05T05:01:50.475Z,12.16
2017-01-05T05:02:59.450Z,12.15
2017-01-05T05:04:08.432Z,12.11
2017-01-05T05:05:17.398Z,12.12
2017-01-05T05:06:26.378Z,12.16
2017-01-05T05:07:35.340Z,12.23
2017-01-05T05:08:44.311Z,12.14
2017-01-05T05:09:53.299Z,12.16
2017-01-05T05:11:02.276Z,12.15
2017-01-05T05:12:11.252Z,12.14
2017-01-05T05:13:20.233Z,12.24
2017-01-05T05:14:29.203Z,12.11
2017-01-05T05:15:38.170Z,12.09
2017-01-05T05:16:47.171Z,12.04
2017-01-05T05:17:56.153Z,12.01
2017-01-05T05:19:05.119Z,12.15
2017-01-05T05:20:14.103Z,12.23
2017-01-05T05:21:23.079Z,12.16
2017-01-05T05:22:32.060Z,12.05
2017-01-05T05:23:41.022Z,11.97
2017-01-05T05:24:50.006Z,11.97
2017-01-05T05:25:58.969Z,11.89
2017-01-05T05:27:07.951Z,11.93
2017-01-05T05:28:16.917Z,12
2017-01-05T05:29:25.891Z,11.96
2017-01-05T05:30:34.857Z,11.93
2017-01-05T05:31:43.814Z,11.88
2017-01-05T05:32:52.789Z,11.89
2017-01-05T05:34:01.764Z,12.04
2017-01-05T05:35:10.735Z,12.04
2017-01-05T05:36:19.715Z,11.88
2017-01-05T05:37:28.675Z,11.94
2017-01-05T05:38:37.635Z,11.96
2017-01-05T05:39:46.609Z,12.04
2017-01-05T05:40:55.597Z,12.05
2017-01-05T05:42:04.901Z,11.89
2017-01-05T05:43:14.006Z,11.82
2017-01-05T05:44:23.167Z,11.9
2017-01-05T05:45:32.151Z,11.71
2017-01-05T05:46:41.159Z,11.82
2017-01-05T05:47:50.131Z,11.78
2017-01-05T05:48:59.149Z,11.77
2017-01-05T05:50:08.129Z,11.78
2017-01-05T05:51:17.102Z,11.82
2017-01-05T05:52:26.073Z,11.78
2017-01-05T05:53:35.082Z,11.96
2017-01-05T05:54:44.050Z,11.89
2017-01-05T05:55:53.016Z,11.88
2017-01-05T05:57:02.026Z,12.24
2017-01-05T05:58:10.994Z,12.6
2017-01-05T05:59:20.002Z,12.91
2017-01-05T06:00:28.972Z,13.21
2017-01-05T06:01:37.977Z,13.32
2017-01-05T06:02:46.954Z,13.51
2017-01-05T06:03:56.840Z,13.59
2017-01-05T06:05:06.327Z,13.72
2017-01-05T06:06:15.334Z,13.8
2017-01-05T06:07:24.306Z,13.89
2017-01-05T06:08:33.279Z,13.97
2017-01-05T06:09:42.253Z,14.01
2017-01-05T06:10:51.233Z,14.06
2017-01-05T06:12:00.191Z,14.09
2017-01-05T06:13:09.172Z,14.1
2017-01-05T06:14:18.154Z,14.14
2017-01-05T06:15:27.164Z,14.19
2017-01-05T06:16:36.143Z,14.28
2017-01-05T06:17:45.103Z,14.17
2017-01-05T06:18:54.088Z,14.04
2017-01-05T06:20:03.098Z,13.98
2017-01-05T06:21:12.085Z,14.02
2017-01-05T06:22:21.060Z,14.17
2017-01-05T06:23:30.031Z,14.19
2017-01-05T06:24:39.015Z,14.12
2017-01-05T06:25:48.013Z,14.12
2017-01-05T06:26:56.987Z,14.23
2017-01-05T06:28:05.974Z,14.24
2017-01-05T06:29:14.964Z,14.46
2017-01-05T06:30:23.933Z,14.54
2017-01-05T06:31:32.907Z,14.52
2017-01-05T06:32:41.891Z,14.59
2017-01-05T06:33:50.864Z,14.68
2017-01-05T06:34:59.837Z,14.68
2017-01-05T06:36:08.809Z,14.68
2017-01-05T06:37:17.774Z,14.82
2017-01-05T06:38:26.751Z,14.88
2017-01-05T06:39:35.719Z,14.87
2017-01-05T06:40:44.699Z,14.82
2017-01-05T06:41:53.664Z,14.93
2017-01-05T06:43:02.649Z,14.93
2017-01-05T06:44:11.622Z,14.97
2017-01-05T06:45:20.591Z,14.88
2017-01-05T06:46:29.581Z,14.98
2017-01-05T06:47:38.569Z,15.08
2017-01-05T06:48:47.569Z,15.05
2017-01-05T06:49:56.541Z,15.08
2017-01-05T06:51:05.520Z,15.09
2017-01-05T06:52:14.502Z,15.18
2017-01-05T06:53:23.482Z,15.12
2017-01-05T06:54:32.710Z,15.16
2017-01-05T06:55:41.673Z,15.16
2017-01-05T06:56:50.650Z,15.18
2017-01-05T06:57:59.610Z,15.18
2017-01-05T06:59:08.586Z,15.21
2017-01-05T07:00:17.569Z,15.3
2017-01-05T07:01:26.554Z,15.28
2017-01-05T07:02:35.552Z,15.26
2017-01-05T07:03:44.532Z,15.31
2017-01-05T07:04:53.505Z,15.33
2017-01-05T07:06:02.479Z,15.38
2017-01-05T07:07:11.465Z,15.37
2017-01-05T07:08:20.454Z,15.34
2017-01-05T07:09:29.414Z,15.44
2017-01-05T07:10:38.400Z,15.42
2017-01-05T07:11:47.376Z,15.51
2017-01-05T07:12:56.359Z,15.51
2017-01-05T07:14:05.335Z,15.52
2017-01-05T07:15:14.317Z,15.52
2017-01-05T07:16:23.281Z,15.46
2017-01-05T07:17:32.249Z,15.55
2017-01-05T07:18:41.227Z,15.56
2017-01-05T07:19:50.208Z,15.61
2017-01-05T07:20:59.180Z,15.56
2017-01-05T07:22:08.165Z,15.63
2017-01-05T07:23:17.137Z,15.64
2017-01-05T07:24:26.117Z,15.69
2017-01-05T07:25:35.096Z,15.7
2017-01-05T07:26:44.103Z,16.11
2017-01-05T07:27:53.069Z,16.45
2017-01-05T07:29:02.048Z,16.74
2017-01-05T07:30:11.105Z,16.98
2017-01-05T07:31:20.432Z,16.95
2017-01-05T07:32:29.404Z,17.14
2017-01-05T07:33:38.422Z,17.32
2017-01-05T07:34:47.385Z,17.39
2017-01-05T07:35:56.398Z,17.55
2017-01-05T07:37:05.386Z,17.33
2017-01-05T07:38:14.378Z,17.74
2017-01-05T07:39:23.355Z,17.94
2017-01-05T07:40:32.337Z,18.13
2017-01-05T07:41:42.474Z,18.21
2017-01-05T07:42:51.458Z,18.47
2017-01-05T07:44:00.649Z,18.5
2017-01-05T07:45:09.621Z,18.59
2017-01-05T07:46:18.585Z,18.66
2017-01-05T07:47:27.602Z,18.69
2017-01-05T07:48:36.683Z,18.77
2017-01-05T07:49:45.674Z,18.68
2017-01-05T07:50:54.652Z,18.32
2017-01-05T07:52:03.631Z,18.03
2017-01-05T07:53:12.595Z,17.96
2017-01-05T07:54:21.568Z,17.86
2017-01-05T07:55:30.544Z,17.77
2017-01-05T07:56:39.512Z,17.73
2017-01-05T07:57:48.488Z,17.58
2017-01-05T07:58:57.467Z,17.6
2017-01-05T08:00:06.439Z,17.6
2017-01-05T08:01:15.427Z,17.6
2017-01-05T08:02:24.396Z,17.54
2017-01-05T08:03:33.405Z,17.55
2017-01-05T08:04:42.381Z,17.62
2017-01-05T08:05:51.376Z,17.54
2017-01-05T08:07:00.352Z,17.55
2017-01-05T08:08:09.341Z,17.54
2017-01-05T08:09:18.326Z,17.54
2017-01-05T08:10:27.311Z,17.6
2017-01-05T08:11:36.291Z,17.69
2017-01-05T08:12:45.313Z,17.62
2017-01-05T08:13:55.305Z,17.6
2017-01-05T08:15:04.292Z,17.6
2017-01-05T08:16:13.301Z,17.55
2017-01-05T08:17:22.277Z,17.54
2017-01-05T08:18:31.281Z,17.67
2017-01-05T08:19:40.309Z,17.71
2017-01-05T08:20:49.278Z,17.55
2017-01-05T08:21:58.255Z,17.57
2017-01-05T08:23:07.271Z,17.57
2017-01-05T08:24:16.248Z,17.64
2017-01-05T08:25:25.236Z,17.64
2017-01-05T08:26:34.228Z,17.62
2017-01-05T08:27:43.210Z,17.6
2017-01-05T08:28:52.189Z,16.73
2017-01-05T08:30:01.166Z,16.3
2017-01-05T08:31:10.148Z,15.46
2017-01-05T08:32:19.140Z,15.05
2017-01-05T08:33:28.134Z,14.84
2017-01-05T08:34:37.118Z,15.16
2017-01-05T08:35:46.091Z,15.52
2017-01-05T08:36:55.082Z,15.86
2017-01-05T08:38:04.061Z,16.11
2017-01-05T08:39:13.029Z,16.3
2017-01-05T08:40:22.006Z,16.52
2017-01-05T08:41:30.987Z,16.65
2017-01-05T08:42:39.962Z,16.73
2017-01-05T08:43:48.935Z,16.75
2017-01-05T08:44:57.931Z,16.82
2017-01-05T08:46:06.901Z,16.81
2017-01-05T08:47:15.902Z,16.82
2017-01-05T08:48:24.908Z,16.82
2017-01-05T08:49:33.884Z,16.96
2017-01-05T08:50:42.866Z,16.92
2017-01-05T08:51:51.850Z,16.87
2017-01-05T08:53:00.819Z,16.99
2017-01-05T08:54:09.810Z,17
2017-01-05T08:55:18.768Z,16.96
2017-01-05T08:56:27.751Z,16.99
2017-01-05T08:57:36.738Z,17.11
2017-01-05T08:58:45.731Z,17
2017-01-05T08:59:54.695Z,17.02
2017-01-05T09:01:03.677Z,17.11
2017-01-05T09:02:12.656Z,17.11
2017-01-05T09:03:21.637Z,17.03
2017-01-05T09:04:30.619Z,17.11
2017-01-05T09:05:39.600Z,17.18
2017-01-05T09:06:48.577Z,17.17
2017-01-05T09:07:57.547Z,17.13
2017-01-05T09:09:06.530Z,17.14
2017-01-05T09:10:15.499Z,17.11
2017-01-05T09:11:24.917Z,17.15
2017-01-05T09:12:33.895Z,17.14
2017-01-05T09:13:42.872Z,17.24
2017-01-05T09:14:51.847Z,17.26
2017-01-05T09:16:00.828Z,17.28
2017-01-05T09:17:09.815Z,17.26
2017-01-05T09:18:18.782Z,17.33
2017-01-05T09:19:27.773Z,17.24
2017-01-05T09:20:36.762Z,17.33
2017-01-05T09:21:45.740Z,17.32
2017-01-05T09:22:54.714Z,17.3
2017-01-05T09:24:03.697Z,17.3
2017-01-05T09:25:12.673Z,17.39
2017-01-05T09:26:21.660Z,17.45
2017-01-05T09:27:30.648Z,17.4
2017-01-05T09:28:39.634Z,17.42
2017-01-05T09:29:48.611Z,17.42
2017-01-05T09:30:57.593Z,17.42
2017-01-05T09:32:06.567Z,17.47
2017-01-05T09:33:15.587Z,17.44
2017-01-05T09:34:24.571Z,17.42
2017-01-05T09:35:33.546Z,17.47
2017-01-05T09:36:42.512Z,17.44
2017-01-05T09:37:51.501Z,17.5
2017-01-05T09:39:00.476Z,17.53
2017-01-05T09:40:09.462Z,17.51
2017-01-05T09:41:18.432Z,17.5
2017-01-05T09:42:27.416Z,17.51
2017-01-05T09:43:36.386Z,17.51
2017-01-05T09:48:56.415Z,17.44
2017-01-05T09:50:05.428Z,17.44
2017-01-05T09:51:14.393Z,17.45
2017-01-05T09:52:23.376Z,17.48
2017-01-05T09:53:32.352Z,17.51
2017-01-05T09:54:41.347Z,17.55
2017-01-05T09:55:50.319Z,17.51
2017-01-05T09:56:59.289Z,17.67
2017-01-05T09:58:08.262Z,17.58
2017-01-05T09:59:17.258Z,17.66
2017-01-05T10:00:26.230Z,17.57
2017-01-05T10:01:35.208Z,17.66
2017-01-05T10:02:44.191Z,17.64
2017-01-05T10:03:53.157Z,17.74
2017-01-05T10:05:02.152Z,17.69
2017-01-05T10:06:11.135Z,17.8
2017-01-05T10:07:20.121Z,17.82
2017-01-05T10:08:29.093Z,17.77
2017-01-05T10:09:38.075Z,17.76
2017-01-05T10:10:47.050Z,17.79
2017-01-05T10:11:56.025Z,17.8
2017-01-05T10:13:05.005Z,17.84
2017-01-05T10:14:13.975Z,17.79
2017-01-05T10:15:22.969Z,17.88
2017-01-05T10:16:31.954Z,17.86
2017-01-05T10:17:40.937Z,17.8
2017-01-05T10:18:49.905Z,17.88
2017-01-05T10:19:58.881Z,17.82
2017-01-05T10:21:07.879Z,17.85
2017-01-05T10:22:16.863Z,17.84
2017-01-05T10:23:25.844Z,17.85
2017-01-05T10:24:34.824Z,17.85
2017-01-05T10:25:43.803Z,17.89
2017-01-05T10:26:52.781Z,17.85
2017-01-05T10:28:01.765Z,17.94
2017-01-05T10:29:10.771Z,17.84
2017-01-05T10:30:19.751Z,17.99
2017-01-05T10:31:28.758Z,17.92
2017-01-05T10:32:37.722Z,17.91
2017-01-05T10:33:46.715Z,17.94
2017-01-05T10:34:55.695Z,17.92
2017-01-05T10:36:04.673Z,17.95
2017-01-05T10:37:13.647Z,17.94
2017-01-05T10:38:22.611Z,17.88
2017-01-05T10:39:31.614Z,17.88
2017-01-05T10:40:40.584Z,17.91
2017-01-05T10:41:49.578Z,17.95
2017-01-05T10:42:58.565Z,17.91
2017-01-05T10:44:07.556Z,17.92
2017-01-05T10:45:16.519Z,17.95
2017-01-05T10:46:25.489Z,17.96
2017-01-05T10:47:34.462Z,17.91
2017-01-05T10:48:43.443Z,17.95
2017-01-05T10:49:52.423Z,18.02
2017-01-05T10:51:01.401Z,17.96
2017-01-05T10:52:10.378Z,18.02
2017-01-05T10:53:19.350Z,17.96
2017-01-05T10:54:28.336Z,18.02
2017-01-05T10:55:37.315Z,18.02
2017-01-05T10:56:46.284Z,18.04
2017-01-05T10:57:55.267Z,18.04
2017-01-05T10:59:04.251Z,17.96
2017-01-05T11:00:13.222Z,18.06
2017-01-05T11:01:22.193Z,18.06
2017-01-05T11:02:31.178Z,18.07
2017-01-05T11:03:40.146Z,18.07
2017-01-05T11:04:49.124Z,17.98
2017-01-05T11:05:58.104Z,18.03
2017-01-05T11:07:07.087Z,18.06
2017-01-05T11:08:16.099Z,18.09
2017-01-05T11:09:25.068Z,18.03
2017-01-05T11:10:34.052Z,18.07
2017-01-05T11:11:43.033Z,18.07
2017-01-05T11:12:52.003Z,18.07
2017-01-05T11:14:00.973Z,18.09
2017-01-05T11:15:09.960Z,18.13
2017-01-05T11:16:18.931Z,18.09
2017-01-05T11:17:27.903Z,18.16
2017-01-05T11:18:36.884Z,18.14
2017-01-05T11:19:45.861Z,18.13
2017-01-05T11:20:54.840Z,18.16
2017-01-05T11:22:03.844Z,18.11
2017-01-05T11:23:13.244Z,18.11
2017-01-05T11:24:22.229Z,18.09
2017-01-05T11:25:31.205Z,18.21
2017-01-05T11:26:40.182Z,18.21
2017-01-05T11:27:49.160Z,18.25
2017-01-05T11:28:58.134Z,18.24
2017-01-05T11:30:07.113Z,18.14
2017-01-05T11:31:16.088Z,18.22
2017-01-05T11:32:25.055Z,18.21
2017-01-05T11:33:34.029Z,18.24
2017-01-05T11:34:43.009Z,18.21
2017-01-05T11:35:51.989Z,18.25
2017-01-05T11:37:00.978Z,18.16
2017-01-05T11:38:09.939Z,18.21
2017-01-05T11:39:18.913Z,18.17
2017-01-05T11:40:27.932Z,18.25
2017-01-05T11:41:36.921Z,18.14
2017-01-05T11:42:45.891Z,18.21
2017-01-05T11:43:54.888Z,18.21
2017-01-05T11:45:03.877Z,18.24
2017-01-05T11:46:12.859Z,18.24
2017-01-05T11:47:21.833Z,18.28
2017-01-05T11:48:30.823Z,18.21
2017-01-05T11:49:39.814Z,18.25
2017-01-05T11:50:48.787Z,18.28
2017-01-05T11:51:57.775Z,18.29
2017-01-05T11:53:06.756Z,18.28
2017-01-05T11:54:15.743Z,18.31
2017-01-05T11:55:24.710Z,18.32
2017-01-05T11:56:33.724Z,18.26
2017-01-05T11:57:42.687Z,18.31
2017-01-05T11:58:51.673Z,18.31
2017-01-05T12:00:00.661Z,18.31
2017-01-05T12:01:09.628Z,18.25
2017-01-05T12:02:18.600Z,18.29
2017-01-05T12:03:27.580Z,18.32
2017-01-05T12:04:36.554Z,18.26
2017-01-05T12:05:45.542Z,18.36
2017-01-05T12:06:54.515Z,18.26
2017-01-05T12:08:03.482Z,18.29
2017-01-05T12:09:12.482Z,18.29
2017-01-05T12:10:21.472Z,18.31
2017-01-05T12:11:30.448Z,18.32
2017-01-05T12:12:39.429Z,18.35
2017-01-05T12:13:48.413Z,18.39
2017-01-05T12:14:57.387Z,18.34
2017-01-05T12:16:06.370Z,18.29
2017-01-05T12:17:15.358Z,18.42
2017-01-05T12:18:24.337Z,18.46
2017-01-05T12:19:33.315Z,18.43
2017-01-05T12:20:42.293Z,18.42
2017-01-05T12:21:51.267Z,18.46
2017-01-05T12:23:00.243Z,18.43
2017-01-05T12:24:09.221Z,18.42
2017-01-05T12:25:18.196Z,18.43
2017-01-05T12:26:27.168Z,18.49
2017-01-05T12:27:36.159Z,18.42
2017-01-05T12:28:45.140Z,18.46
2017-01-05T12:29:54.108Z,18.54
2017-01-05T12:31:03.090Z,18.44
2017-01-05T12:32:12.080Z,18.42
2017-01-05T12:33:21.046Z,18.43
2017-01-05T12:34:30.018Z,18.4
2017-01-05T12:35:38.999Z,18.5
2017-01-05T12:36:47.979Z,18.46
2017-01-05T12:37:56.943Z,18.5
2017-01-05T12:39:05.969Z,18.46
2017-01-05T12:40:14.948Z,18.54
2017-01-05T12:41:23.931Z,18.51
2017-01-05T12:42:32.891Z,18.54
2017-01-05T12:43:41.865Z,18.59
2017-01-05T12:44:50.850Z,18.57
2017-01-05T12:45:59.825Z,18.58
2017-01-05T12:47:08.791Z,18.59
2017-01-05T12:48:17.763Z,18.62
2017-01-05T12:49:26.743Z,18.51
2017-01-05T12:50:35.704Z,18.53
2017-01-05T12:51:44.688Z,18.49
2017-01-05T12:52:53.667Z,18.53
2017-01-05T12:54:02.650Z,18.53
2017-01-05T12:55:11.628Z,18.47
2017-01-05T12:56:20.607Z,18.42
2017-01-05T12:57:29.576Z,18.46
2017-01-05T12:58:38.554Z,18.57
2017-01-05T12:59:47.542Z,18.5
2017-01-05T13:00:56.520Z,18.66
2017-01-05T13:02:05.499Z,18.57
2017-01-05T13:03:14.480Z,18.51
2017-01-05T13:04:23.455Z,18.59
2017-01-05T13:05:32.445Z,18.58
2017-01-05T13:06:41.424Z,18.59
2017-01-05T13:07:50.406Z,18.59
2017-01-05T13:08:59.400Z,18.61
2017-01-05T13:10:08.376Z,18.58
2017-01-05T13:11:17.344Z,18.62
2017-01-05T13:12:26.330Z,18.68
2017-01-05T13:13:35.316Z,18.66
2017-01-05T13:14:44.282Z,18.69
2017-01-05T13:15:53.253Z,18.64
2017-01-05T13:17:02.236Z,18.74
2017-01-05T13:18:11.208Z,18.68
2017-01-05T13:19:20.188Z,18.66
2017-01-05T13:20:29.196Z,18.72
2017-01-05T13:21:38.162Z,18.69
2017-01-05T13:22:47.134Z,18.69
2017-01-05T13:23:56.117Z,18.68
2017-01-05T13:25:05.116Z,18.71
2017-01-05T13:26:14.094Z,18.66
2017-01-05T13:27:23.061Z,18.66
2017-01-05T13:28:32.041Z,18.64
2017-01-05T13:29:41.020Z,18.68
2017-01-05T13:30:50.022Z,18.65
2017-01-05T13:31:59.010Z,18.69
2017-01-05T13:33:07.979Z,18.77
2017-01-05T13:34:16.966Z,18.76
2017-01-05T13:35:25.944Z,18.71
2017-01-05T13:36:34.929Z,18.8
2017-01-05T13:37:43.897Z,18.79
2017-01-05T13:38:52.876Z,18.68
2017-01-05T13:40:01.857Z,18.79
2017-01-05T13:41:10.847Z,18.72
2017-01-05T13:42:19.828Z,18.68
2017-01-05T13:43:28.794Z,18.76
2017-01-05T13:44:37.771Z,18.81
2017-01-05T13:45:46.744Z,18.76
2017-01-05T13:46:55.724Z,18.68
2017-01-05T13:48:04.709Z,18.74
2017-01-05T13:49:13.687Z,18.81
2017-01-05T13:50:22.670Z,18.76
2017-01-05T13:51:31.669Z,18.74
2017-01-05T13:52:40.639Z,18.76
2017-01-05T13:53:49.614Z,18.74
2017-01-05T13:54:58.587Z,18.81
2017-01-05T13:56:07.576Z,18.8
2017-01-05T13:57:16.552Z,18.8
2017-01-05T13:58:25.527Z,18.81
2017-01-05T13:59:34.511Z,18.8
2017-01-05T14:00:43.492Z,18.8
2017-01-05T14:01:52.501Z,18.68
2017-01-05T14:03:01.475Z,18.76
2017-01-05T14:04:10.454Z,18.77
2017-01-05T14:05:19.425Z,18.76
2017-01-05T14:06:28.410Z,18.76
2017-01-05T14:07:37.399Z,18.74
2017-01-05T14:08:46.367Z,18.76
2017-01-05T14:09:55.357Z,18.69
2017-01-05T14:11:04.335Z,18.74
2017-01-05T14:12:13.321Z,18.72
2017-01-05T14:13:22.307Z,18.83
2017-01-05T14:14:31.273Z,18.68
2017-01-05T14:15:40.267Z,18.77
2017-01-05T14:16:49.247Z,18.68
2017-01-05T14:17:58.223Z,18.8
2017-01-05T14:19:07.204Z,18.77
2017-01-05T14:20:16.191Z,18.72
2017-01-05T14:21:25.170Z,18.8
2017-01-05T14:22:34.148Z,18.79
2017-01-05T14:23:43.128Z,18.8
2017-01-05T14:24:52.102Z,18.76
2017-01-05T14:26:01.082Z,18.79
2017-01-05T14:27:10.063Z,18.76
2017-01-05T14:28:19.032Z,18.74
2017-01-05T14:29:28.015Z,18.76
2017-01-05T14:30:37.008Z,18.79
2017-01-05T14:31:45.979Z,18.81
2017-01-05T14:32:54.955Z,18.74
2017-01-05T14:34:03.943Z,18.77
2017-01-05T14:35:12.942Z,18.76
2017-01-05T14:36:21.919Z,18.69
2017-01-05T14:37:30.905Z,18.71
2017-01-05T14:38:39.873Z,18.68
2017-01-05T14:39:48.860Z,18.72
2017-01-05T14:40:57.832Z,18.81
2017-01-05T14:42:06.820Z,18.81
2017-01-05T14:43:15.795Z,18.79
2017-01-05T14:44:24.781Z,18.79
2017-01-05T14:45:33.792Z,18.79
2017-01-05T14:46:42.777Z,18.71
2017-01-05T14:47:51.757Z,18.76
2017-01-05T14:49:00.728Z,18.68
2017-01-05T14:50:09.699Z,18.69
2017-01-05T14:51:18.690Z,18.79
2017-01-05T14:52:27.683Z,18.74
2017-01-05T14:53:36.674Z,18.71
2017-01-05T14:54:45.648Z,18.64
2017-01-05T14:55:54.625Z,18.68